Ottumwa Regional Airport
KOTM : now visible

Airfield :











YOU CAN JOIN US ON...

 
LOGIN :

Register | Disclaimer

   EN    FR    IT 

 









Legend :    VFR   Marginal VFR   IFR   Intensive IFR   Very Intensive IFR
Visi :
Ceiling :
>= 8 km
>= 3000ft
5 to 8 km
1000 to 3000 ft
1500m to 5 km
500 to 1000 ft
800 to 1500m
200 to 500 ft
< 800m
< 200 ft
Symbols :   Thunderstorms  Fog  Heavy snow  Heavy precipitations  Wind > 20 kt






- Airport Elevation : 845 ft
- IATA code : OTM


KOTM - Ottumwa Regional

CURRENT METAR :
  • 050653Z AUTO 12009KT 10SM OVC050 02/M09 A3007 RMK AO2 SLP190 T00171089

EXPIRED METARs :
  • 050553Z AUTO 12008KT 10SM CLR 01/M09 A3011 RMK AO2 SLP203 T00061089 10033 20006 400781033 56016
  • 050453Z AUTO 12008KT 10SM CLR 01/M08 A3012 RMK AO2 SLP208 T00111083

TAF KOTM
Valid from the 05 at 06:00 until the 06 at 06:00 UTC


050539Z 0506/0606 13010KT P6SM SCT200
FM051000 15013G19KT P6SM SCT025 OVC035
FM051300 17014G20KT P6SM -RA SCT014 OVC020
FM051800 19014G21KT P6SM SCT020 OVC030
FM052000 22012KT P6SM SCT030 BKN040
FM052300 29014G21KT P6SM SCT080 BKN150
FM060200 31020G30KT P6SM SCT030 BKN045
KZAU FIR / North America



MET'MAP, your aeronautical weather chart ! - Copyright ORBIFLY December 2007 - Disclaimer

ORBIFLY MET'MAP TEAM :

Programming & Development : Alexandra Zaïnal
Concept & original design : Baudouin d'Aumeries
Assistance for programming : Marc-Olivier Méhu
Technical & hardware support : Manuel Goepfert

Contact : metmap@orbifly.com




SOURCES & CREDITS :

   NOAA       Earth
Advisory